»·PEaware :: N799DS KVNY-KSBA

N799DS :: KVNY-KSBA

FLIGHT INFORMATION

Flight Status: Arrived
Operator: Privately registered:
United States
More flights under this callsign
Pilot: Wolfgang B. (15069)
Aircraft: CESSNA 172 SKYHAWK
(C172)
More flights by this aircraft type
Origin: KVNY Van Nuys
United States
Destination: KSBA Santa Barbara Mun
United States
More flights between these airports :: More routes between these airports
Route: CANOG3 FIM V186 DEANO V27 KWANG
File this flight plan on PilotEdge
Remarks:
Altitude:
(Current/Filed)
6,000ft
Speed:
(Current/Filed)
120kts
Departed: 05-Apr-20 01:50 PM
Arrived: 05-Apr-20 02:46 PM
Distance/Time
Traveled:
79nm/0:56
Distance/Time
To Go:
Arrived

Flight Plot

Page will automatically refresh every two minutes.

Flight plan parsing failed; only flown route is shown


Map Options




Map Legend


Flown Route
Filed Route
Departure Airport
Arrival Airport
Navaid (VOR, NDB)
Fix

Horizontal Profiles

Position Reports

Time Latitude Longitude Heading Altitude Ground
Speed
05-Apr-20 13:27 34.217847 -118.495612 190 806ft 0kts
05-Apr-20 13:28 34.217847 -118.495612 190 806ft 0kts
05-Apr-20 13:29 34.217847 -118.495612 190 806ft 0kts
05-Apr-20 13:30 34.217847 -118.495612 190 806ft 0kts
05-Apr-20 13:31 34.217847 -118.495612 190 806ft 0kts
05-Apr-20 13:32 34.217847 -118.495612 189 806ft 0kts
05-Apr-20 13:33 34.217847 -118.495612 189 806ft 0kts
05-Apr-20 13:34 34.217847 -118.495612 189 806ft 0kts
05-Apr-20 13:35 34.217847 -118.495612 189 806ft 0kts
05-Apr-20 13:36 34.217847 -118.495612 189 806ft 0kts
05-Apr-20 13:37 34.217847 -118.495612 189 806ft 0kts
05-Apr-20 13:38 34.217847 -118.495612 189 806ft 0kts
05-Apr-20 13:39 34.217847 -118.495612 189 806ft 0kts
05-Apr-20 13:40 34.217847 -118.495612 189 806ft 0kts
05-Apr-20 13:41 34.217844 -118.495613 189 806ft 0kts
05-Apr-20 13:42 34.217305 -118.493681 98 806ft 9kts
05-Apr-20 13:43 34.218632 -118.492223 52 806ft 0kts
05-Apr-20 13:44 34.218632 -118.492223 52 806ft 0kts
05-Apr-20 13:45 34.218633 -118.492222 52 806ft 0kts
05-Apr-20 13:46 34.218632 -118.492223 52 806ft 0kts
05-Apr-20 13:47 34.218632 -118.492223 52 806ft 0kts
05-Apr-20 13:48 34.218632 -118.492223 52 806ft 0kts
05-Apr-20 13:49 34.210923 -118.490526 169 1135ft 51kts
05-Apr-20 13:50 34.193185 -118.488574 180 1722ft 75kts
05-Apr-20 13:51 34.173833 -118.499254 229 2040ft 81kts
05-Apr-20 13:52 34.162403 -118.517951 225 2616ft 65kts
05-Apr-20 13:53 34.154096 -118.536160 269 3396ft 72kts
05-Apr-20 13:54 34.158864 -118.559779 270 4103ft 72kts
05-Apr-20 13:55 34.163956 -118.583394 271 4772ft 73kts
05-Apr-20 13:56 34.169306 -118.607315 272 5401ft 74kts
05-Apr-20 13:57 34.173309 -118.631248 267 5987ft 74kts
05-Apr-20 13:58 34.178191 -118.663535 271 6026ft 115kts
05-Apr-20 13:59 34.184458 -118.702285 271 6023ft 116kts
05-Apr-20 14:00 34.190511 -118.740547 271 6024ft 116kts
05-Apr-20 14:01 34.196540 -118.779033 271 6025ft 117kts
05-Apr-20 14:02 34.202626 -118.818004 272 6026ft 117kts
05-Apr-20 14:03 34.208610 -118.856347 272 6027ft 115kts
05-Apr-20 14:04 34.214519 -118.894381 272 6027ft 114kts
05-Apr-20 14:05 34.220393 -118.932270 272 6027ft 114kts
05-Apr-20 14:06 34.226348 -118.970848 272 6027ft 117kts
05-Apr-20 14:07 34.232409 -119.010001 272 6009ft 118kts
05-Apr-20 14:08 34.238421 -119.048990 272 6008ft 118kts
05-Apr-20 14:09 34.244438 -119.088120 272 6011ft 117kts
05-Apr-20 14:10 34.250386 -119.126895 272 6014ft 117kts
05-Apr-20 14:11 34.256331 -119.165741 272 6016ft 117kts
05-Apr-20 14:12 34.262243 -119.204454 272 6019ft 116kts
05-Apr-20 14:13 34.268149 -119.243210 272 6022ft 116kts
05-Apr-20 14:14 34.273999 -119.281666 272 6025ft 116kts
05-Apr-20 14:15 34.279891 -119.319993 272 5387ft 111kts
05-Apr-20 14:16 34.284044 -119.358195 264 4679ft 115kts
05-Apr-20 14:17 34.284003 -119.397097 263 4036ft 114kts
05-Apr-20 14:18 34.283823 -119.436359 263 4021ft 116kts
05-Apr-20 14:19 34.283646 -119.476052 263 4020ft 118kts
05-Apr-20 14:20 34.283466 -119.516258 263 4018ft 119kts
05-Apr-20 14:21 34.283273 -119.556476 263 4025ft 120kts
05-Apr-20 14:22 34.283064 -119.597167 263 4022ft 121kts
05-Apr-20 14:23 34.282835 -119.638521 263 4018ft 123kts
05-Apr-20 14:24 34.282590 -119.680176 262 4015ft 124kts
05-Apr-20 14:25 34.282328 -119.722450 262 4011ft 126kts
05-Apr-20 14:26 34.282047 -119.765307 262 4008ft 127kts
05-Apr-20 14:27 34.281754 -119.808343 262 4008ft 128kts
05-Apr-20 14:28 34.281443 -119.851381 262 4008ft 128kts
05-Apr-20 14:29 34.278935 -119.894054 257 4008ft 127kts
05-Apr-20 14:30 34.275492 -119.936609 257 4008ft 127kts
05-Apr-20 14:31 34.272030 -119.979074 257 4008ft 127kts
05-Apr-20 14:32 34.268556 -120.021523 257 4006ft 127kts
05-Apr-20 14:33 34.265067 -120.063971 257 4001ft 126kts
05-Apr-20 14:34 34.292417 -120.086526 358 3807ft 132kts
05-Apr-20 14:35 34.328060 -120.087508 0 3502ft 135kts
05-Apr-20 14:36 34.366537 -120.088044 1 3498ft 138kts
05-Apr-20 14:37 34.404542 -120.084644 38 3497ft 135kts
05-Apr-20 14:38 34.425477 -120.052280 101 3159ft 117kts
05-Apr-20 14:39 34.424139 -120.015571 96 2665ft 98kts
05-Apr-20 14:40 34.424716 -119.981917 94 2117ft 98kts
05-Apr-20 14:41 34.425453 -119.948976 93 1576ft 97kts
05-Apr-20 14:42 34.426177 -119.916165 93 1044ft 97kts
05-Apr-20 14:43 34.426881 -119.884136 93 528ft 85kts
05-Apr-20 14:44 34.427414 -119.861106 93 150ft 61kts
05-Apr-20 14:45 34.427685 -119.845167 89 14ft 25kts
05-Apr-20 14:46 34.428644 -119.841991 348 14ft 0kts
05-Apr-20 14:47 34.428644 -119.841991 348 14ft 0kts
05-Apr-20 14:48 34.429480 -119.842252 353 14ft 11kts
05-Apr-20 14:49 34.431338 -119.837675 70 14ft 18kts
05-Apr-20 14:50 34.432860 -119.835070 159 14ft 0kts
05-Apr-20 14:51 34.432860 -119.835070 159 14ft 0kts
05-Apr-20 14:52 34.432860 -119.835070 159 14ft 0kts
05-Apr-20 14:53 34.427327 -119.865791 95 230ft 60kts
05-Apr-20 14:54 34.285814 -120.085864 354 3899ft 136kts
05-Apr-20 14:55 34.321533 -120.087402 0 3504ft 129kts
05-Apr-20 14:56 34.359614 -120.087950 1 3498ft 138kts
05-Apr-20 14:57 34.398421 -120.088096 13 3494ft 139kts
05-Apr-20 14:58 34.425755 -120.059626 91 3251ft 123kts

Navigation Log

Ident Type
Flight plan parsing failed, navigation log unavailable